createdAt,value
2022-07-30T00:01:36.324Z,101464.00
2022-07-30T00:04:04.185Z,101467.00
2022-07-30T00:06:32.769Z,101459.00
2022-07-30T00:09:00.131Z,101457.00
2022-07-30T00:11:28.219Z,101465.00
2022-07-30T00:13:56.598Z,101459.00
2022-07-30T00:16:24.127Z,101463.00
2022-07-30T00:18:51.739Z,101466.00
2022-07-30T00:21:20.149Z,101466.00
2022-07-30T00:24:04.869Z,101475.00
2022-07-30T00:26:32.016Z,101468.00
2022-07-30T00:28:59.127Z,101463.00
2022-07-30T00:31:27.105Z,101449.00
2022-07-30T00:33:54.447Z,101471.00
2022-07-30T00:36:21.865Z,101465.00
2022-07-30T00:38:49.424Z,101468.00
2022-07-30T00:41:16.929Z,101462.00
2022-07-30T00:43:44.843Z,101460.00
2022-07-30T00:46:12.274Z,101469.00
2022-07-30T00:48:39.528Z,101467.00
2022-07-30T00:51:06.959Z,101468.00
2022-07-30T00:53:35.320Z,101470.00
2022-07-30T00:56:03.600Z,101464.00
2022-07-30T00:58:31.174Z,101463.00
2022-07-30T01:00:58.583Z,101474.00
2022-07-30T01:03:26.094Z,101469.00
2022-07-30T01:05:53.442Z,101464.00
2022-07-30T01:08:21.049Z,101469.00
2022-07-30T01:10:48.443Z,101476.00
2022-07-30T01:13:15.631Z,101468.00
2022-07-30T01:15:43.842Z,101454.00
2022-07-30T01:18:13.789Z,101453.00
2022-07-30T01:21:01.095Z,101465.00
2022-07-30T01:23:45.541Z,101461.00
2022-07-30T01:26:18.002Z,101468.00
2022-07-30T01:28:53.934Z,101469.00
2022-07-30T01:31:24.660Z,101466.00
2022-07-30T01:33:52.358Z,101459.00
2022-07-30T01:36:23.269Z,101470.00
2022-07-30T01:38:53.590Z,101462.00
2022-07-30T01:41:21.553Z,101468.00
2022-07-30T01:43:48.720Z,101464.00
2022-07-30T01:46:18.811Z,101463.00
2022-07-30T01:48:47.474Z,101458.00
2022-07-30T01:51:19.500Z,101452.00
2022-07-30T01:53:50.470Z,101452.00
2022-07-30T01:56:24.711Z,101468.00
2022-07-30T01:58:55.108Z,101456.00
2022-07-30T02:01:23.716Z,101456.00
2022-07-30T02:03:51.303Z,101463.00
2022-07-30T02:06:26.831Z,101467.00
2022-07-30T02:09:02.275Z,101463.00
2022-07-30T02:12:04.455Z,101466.00
2022-07-30T02:14:45.811Z,101462.00
2022-07-30T02:17:30.123Z,101467.00
2022-07-30T02:20:09.393Z,101462.00
2022-07-30T02:22:42.408Z,101457.00
2022-07-30T02:25:11.047Z,101465.00
2022-07-30T02:27:43.601Z,101467.00
2022-07-30T02:30:12.567Z,101468.00
2022-07-30T02:32:44.107Z,101455.00
2022-07-30T02:35:19.504Z,101463.00
2022-07-30T02:37:53.454Z,101470.00
2022-07-30T02:40:23.585Z,101469.00
2022-07-30T02:42:53.348Z,101465.00
2022-07-30T02:45:24.136Z,101465.00
2022-07-30T02:48:04.073Z,101467.00
2022-07-30T02:51:46.496Z,101470.00
2022-07-30T02:58:28.462Z,101470.00
2022-07-30T03:00:58.015Z,101475.00
2022-07-30T03:03:29.347Z,101475.00
2022-07-30T03:05:59.908Z,101466.00
2022-07-30T03:08:31.723Z,101466.00
2022-07-30T03:11:00.516Z,101474.00
2022-07-30T03:13:27.932Z,101467.00
2022-07-30T03:15:59.512Z,101477.00
2022-07-30T03:18:34.509Z,101475.00
2022-07-30T03:21:03.776Z,101479.00
2022-07-30T03:23:37.431Z,101483.00
2022-07-30T03:26:08.753Z,101484.00
2022-07-30T03:28:39.788Z,101490.00
2022-07-30T03:31:08.786Z,101488.00
2022-07-30T03:33:38.607Z,101480.00
2022-07-30T03:36:08.922Z,101494.00
2022-07-30T03:38:42.408Z,101484.00
2022-07-30T03:41:12.106Z,101487.00
2022-07-30T03:43:41.245Z,101493.00
2022-07-30T03:46:11.325Z,101485.00
2022-07-30T03:48:40.880Z,101484.00
2022-07-30T03:51:12.171Z,101471.00
2022-07-30T03:53:42.688Z,101469.00
2022-07-30T03:56:11.320Z,101489.00
2022-07-30T03:58:39.442Z,101487.00
2022-07-30T04:01:07.067Z,101490.00
2022-07-30T04:03:34.905Z,101493.00
2022-07-30T04:06:02.575Z,101492.00
2022-07-30T04:08:29.888Z,101497.00
2022-07-30T04:10:57.743Z,101492.00
2022-07-30T04:13:25.047Z,101486.00
2022-07-30T04:16:38.993Z,101497.00
2022-07-30T04:19:09.105Z,101496.00
2022-07-30T04:22:16.484Z,101506.00
2022-07-30T04:24:45.543Z,101506.00
2022-07-30T04:27:14.127Z,101501.00
2022-07-30T04:29:42.135Z,101505.00
2022-07-30T04:32:10.055Z,101513.00
2022-07-30T04:34:37.569Z,101512.00
2022-07-30T04:37:05.122Z,101516.00
2022-07-30T04:39:32.698Z,101516.00
2022-07-30T04:41:59.894Z,101512.00
2022-07-30T04:44:27.162Z,101518.00
2022-07-30T04:46:54.405Z,101521.00
2022-07-30T04:49:23.716Z,101518.00
2022-07-30T04:51:52.421Z,101527.00
2022-07-30T04:54:22.885Z,101539.00
2022-07-30T04:56:54.032Z,101533.00
2022-07-30T04:59:25.442Z,101544.00
2022-07-30T05:01:57.637Z,101548.00
2022-07-30T05:04:27.912Z,101553.00
2022-07-30T05:06:57.232Z,101551.00
2022-07-30T05:09:25.150Z,101550.00
2022-07-30T05:11:54.066Z,101549.00
2022-07-30T05:14:23.385Z,101557.00
2022-07-30T05:16:52.280Z,101557.00
2022-07-30T05:19:20.599Z,101558.00
2022-07-30T05:21:48.304Z,101550.00
2022-07-30T05:24:15.920Z,101559.00
2022-07-30T05:26:43.946Z,101563.00
2022-07-30T05:29:19.689Z,101569.00
2022-07-30T05:31:48.648Z,101564.00
2022-07-30T05:34:16.214Z,101559.00
2022-07-30T05:36:45.232Z,101574.00
2022-07-30T05:39:12.960Z,101578.00
2022-07-30T05:41:40.132Z,101580.00
2022-07-30T05:44:07.833Z,101584.00
2022-07-30T05:46:35.307Z,101566.00
2022-07-30T05:49:02.759Z,101574.00
2022-07-30T05:51:30.115Z,101578.00
2022-07-30T05:54:02.788Z,101571.00
2022-07-30T05:56:31.013Z,101575.00
2022-07-30T05:58:58.814Z,101574.00
2022-07-30T06:01:26.529Z,101577.00
2022-07-30T06:04:01.387Z,101575.00
2022-07-30T06:06:30.269Z,101569.00
2022-07-30T06:09:01.216Z,101565.00
2022-07-30T06:11:28.696Z,101563.00
2022-07-30T06:13:58.895Z,101574.00
2022-07-30T06:16:27.783Z,101566.00
2022-07-30T06:19:01.451Z,101560.00
2022-07-30T06:21:29.975Z,101557.00
2022-07-30T06:24:18.790Z,101554.00
2022-07-30T06:26:50.944Z,101561.00
2022-07-30T06:29:33.106Z,101571.00
2022-07-30T06:32:11.450Z,101576.00
2022-07-30T06:34:42.771Z,101576.00
2022-07-30T06:37:18.255Z,101579.00
2022-07-30T06:39:57.711Z,101581.00
2022-07-30T06:42:43.813Z,101577.00
2022-07-30T06:45:14.119Z,101588.00
2022-07-30T06:47:49.561Z,101595.00
2022-07-30T06:50:21.576Z,101593.00
2022-07-30T06:53:17.911Z,101593.00
2022-07-30T06:55:50.819Z,101595.00
2022-07-30T06:58:44.453Z,101588.00
2022-07-30T07:01:31.823Z,101595.00
2022-07-30T07:04:26.386Z,101589.00
2022-07-30T07:07:12.582Z,101590.00
2022-07-30T07:09:50.595Z,101588.00
2022-07-30T07:12:28.079Z,101594.00
2022-07-30T07:14:55.432Z,101589.00
2022-07-30T07:17:24.603Z,101591.00
2022-07-30T07:20:00.339Z,101578.00
2022-07-30T07:22:37.109Z,101589.00
2022-07-30T07:25:06.891Z,101588.00
2022-07-30T07:27:39.341Z,101594.00
2022-07-30T07:30:09.408Z,101587.00
2022-07-30T07:32:42.807Z,101594.00
2022-07-30T07:35:15.173Z,101601.00
2022-07-30T07:37:43.019Z,101595.00
2022-07-30T07:40:11.242Z,101606.00
2022-07-30T07:42:38.651Z,101594.00
2022-07-30T07:45:12.418Z,101595.00
2022-07-30T07:47:52.062Z,101585.00
2022-07-30T07:50:24.279Z,101592.00
2022-07-30T07:53:24.317Z,101582.00
2022-07-30T07:56:03.041Z,101592.00
2022-07-30T07:58:56.758Z,101607.00
2022-07-30T08:01:26.655Z,101603.00
2022-07-30T08:03:56.229Z,101603.00
2022-07-30T08:06:25.146Z,101601.00
2022-07-30T08:08:56.121Z,101592.00
2022-07-30T08:11:28.094Z,101609.00
2022-07-30T08:14:01.479Z,101601.00
2022-07-30T08:16:33.145Z,101601.00
2022-07-30T08:19:05.567Z,101601.00
2022-07-30T08:21:33.306Z,101607.00
2022-07-30T08:24:08.334Z,101589.00
2022-07-30T08:26:35.690Z,101599.00
2022-07-30T08:29:13.043Z,101601.00
2022-07-30T08:31:45.221Z,101594.00
2022-07-30T08:34:14.872Z,101608.00
2022-07-30T08:36:46.259Z,101602.00
2022-07-30T08:39:14.084Z,101597.00
2022-07-30T08:41:48.601Z,101588.00
2022-07-30T08:44:22.426Z,101588.00
2022-07-30T08:46:54.016Z,101590.00
2022-07-30T08:49:22.516Z,101590.00
2022-07-30T08:51:52.482Z,101586.00
2022-07-30T08:54:25.969Z,101589.00
2022-07-30T08:56:54.066Z,101598.00
2022-07-30T08:59:52.908Z,101592.00
2022-07-30T09:02:16.042Z,101603.00
2022-07-30T09:04:59.887Z,101613.00
2022-07-30T09:07:28.751Z,101603.00
2022-07-30T09:09:58.808Z,101617.00
2022-07-30T09:12:40.477Z,101612.00
2022-07-30T09:15:21.669Z,101598.00
2022-07-30T09:17:54.784Z,101614.00
2022-07-30T09:20:30.943Z,101615.00
2022-07-30T09:23:06.329Z,101619.00
2022-07-30T09:25:49.878Z,101625.00
2022-07-30T09:28:31.629Z,101613.00
2022-07-30T09:31:01.496Z,101604.00
2022-07-30T09:33:49.821Z,101616.00
2022-07-30T09:36:23.310Z,101605.00
2022-07-30T09:38:57.845Z,101612.00
2022-07-30T09:41:40.158Z,101606.00
2022-07-30T09:44:09.087Z,101605.00
2022-07-30T09:46:51.486Z,101597.00
2022-07-30T09:49:23.450Z,101599.00
2022-07-30T09:51:55.704Z,101604.00
2022-07-30T09:54:51.419Z,101602.00
2022-07-30T09:57:25.487Z,101608.00
2022-07-30T09:59:56.074Z,101609.00
2022-07-30T10:02:36.459Z,101602.00
2022-07-30T10:05:14.569Z,101609.00
2022-07-30T10:07:57.306Z,101614.00
2022-07-30T10:10:32.290Z,101620.00
2022-07-30T10:13:07.640Z,101605.00
2022-07-30T10:15:37.580Z,101600.00
2022-07-30T10:18:08.518Z,101609.00
2022-07-30T10:20:38.003Z,101602.00
2022-07-30T10:23:09.701Z,101601.00
2022-07-30T10:25:49.531Z,101613.00
2022-07-30T10:28:29.760Z,101594.00
2022-07-30T10:30:59.834Z,101600.00
2022-07-30T10:33:34.465Z,101591.00
2022-07-30T10:36:08.977Z,101584.00
2022-07-30T10:38:41.875Z,101597.00
2022-07-30T10:41:43.146Z,101588.00
2022-07-30T10:44:44.429Z,101589.00
2022-07-30T10:47:19.515Z,101592.00
2022-07-30T10:50:14.299Z,101587.00
2022-07-30T10:53:02.975Z,101582.00
2022-07-30T10:55:38.596Z,101585.00
2022-07-30T10:58:17.812Z,101592.00
2022-07-30T11:01:18.354Z,101606.00
2022-07-30T11:04:29.655Z,101597.00
2022-07-30T11:07:23.609Z,101601.00
2022-07-30T11:10:05.624Z,101593.00
2022-07-30T11:12:44.018Z,101598.00
2022-07-30T11:15:19.277Z,101596.00
2022-07-30T11:18:12.422Z,101595.00
2022-07-30T11:20:43.320Z,101593.00
2022-07-30T11:23:26.479Z,101598.00
2022-07-30T11:25:56.147Z,101600.00
2022-07-30T11:28:46.186Z,101604.00
2022-07-30T11:31:56.429Z,101593.00
2022-07-30T11:34:27.960Z,101585.00
2022-07-30T11:37:18.373Z,101598.00
2022-07-30T11:39:58.359Z,101583.00
2022-07-30T11:42:38.976Z,101583.00
2022-07-30T11:45:18.758Z,101583.00
2022-07-30T11:47:50.056Z,101575.00
2022-07-30T11:50:32.119Z,101583.00
2022-07-30T11:53:06.776Z,101577.00
2022-07-30T11:55:42.816Z,101585.00
2022-07-30T11:58:40.700Z,101581.00
2022-07-30T12:01:15.678Z,101591.00
2022-07-30T12:03:46.228Z,101586.00
2022-07-30T12:06:20.423Z,101586.00
2022-07-30T12:08:58.179Z,101596.00
2022-07-30T12:11:34.538Z,101606.00
2022-07-30T12:14:03.280Z,101593.00
2022-07-30T12:16:33.347Z,101600.00
2022-07-30T12:19:09.449Z,101603.00
2022-07-30T12:21:40.372Z,101578.00
2022-07-30T12:24:10.176Z,101590.00
2022-07-30T12:26:40.192Z,101578.00
2022-07-30T12:29:14.809Z,101587.00
2022-07-30T12:31:53.600Z,101579.00
2022-07-30T12:34:26.152Z,101578.00
2022-07-30T12:36:54.652Z,101584.00
2022-07-30T12:39:28.339Z,101580.00
2022-07-30T12:41:56.489Z,101577.00
2022-07-30T12:44:45.999Z,101580.00
2022-07-30T12:47:26.714Z,101580.00
2022-07-30T12:49:57.108Z,101573.00
2022-07-30T12:52:31.833Z,101580.00
2022-07-30T12:55:06.742Z,101585.00
2022-07-30T12:57:57.233Z,101584.00
2022-07-30T13:00:55.296Z,101581.00
2022-07-30T13:03:27.230Z,101593.00
2022-07-30T13:05:58.187Z,101577.00
2022-07-30T13:08:53.672Z,101588.00
2022-07-30T13:11:26.082Z,101587.00
2022-07-30T13:13:54.617Z,101584.00
2022-07-30T13:16:22.114Z,101588.00
2022-07-30T13:18:49.777Z,101574.00
2022-07-30T13:21:18.575Z,101585.00
2022-07-30T13:23:46.471Z,101578.00
2022-07-30T13:26:16.590Z,101582.00
2022-07-30T13:28:47.032Z,101578.00
2022-07-30T13:31:14.996Z,101578.00
2022-07-30T13:33:43.377Z,101576.00
2022-07-30T13:36:11.853Z,101577.00
2022-07-30T13:38:42.626Z,101577.00
2022-07-30T13:41:09.910Z,101573.00
2022-07-30T13:43:40.236Z,101565.00
2022-07-30T13:46:08.314Z,101562.00
2022-07-30T13:48:36.651Z,101560.00
2022-07-30T13:51:05.904Z,101554.00
2022-07-30T13:53:33.973Z,101548.00
2022-07-30T13:56:01.859Z,101551.00
2022-07-30T13:58:35.462Z,101553.00
2022-07-30T14:01:04.140Z,101541.00
2022-07-30T14:03:31.810Z,101544.00
2022-07-30T14:06:10.986Z,101530.00
2022-07-30T14:08:39.742Z,101539.00
2022-07-30T14:11:06.953Z,101544.00
2022-07-30T14:13:34.119Z,101544.00
2022-07-30T14:16:01.303Z,101547.00
2022-07-30T14:18:28.857Z,101538.00
2022-07-30T14:20:56.202Z,101543.00
2022-07-30T14:23:23.339Z,101537.00
2022-07-30T14:25:52.499Z,101533.00
2022-07-30T14:28:20.206Z,101550.00
2022-07-30T14:30:51.503Z,101544.00
2022-07-30T14:33:23.516Z,101540.00
2022-07-30T14:36:08.894Z,101542.00
2022-07-30T14:38:36.673Z,101538.00
2022-07-30T14:41:04.446Z,101524.00
2022-07-30T14:43:35.114Z,101536.00
2022-07-30T14:46:03.478Z,101535.00
2022-07-30T14:48:31.425Z,101529.00
2022-07-30T14:51:19.474Z,101534.00
2022-07-30T14:53:53.571Z,101525.00
2022-07-30T14:56:22.588Z,101529.00
2022-07-30T14:58:50.825Z,101540.00
2022-07-30T15:01:18.967Z,101537.00
2022-07-30T15:03:47.825Z,101542.00
2022-07-30T15:06:15.796Z,101537.00
2022-07-30T15:08:46.177Z,101534.00
2022-07-30T15:11:14.050Z,101526.00
2022-07-30T15:13:50.523Z,101536.00
2022-07-30T15:16:19.717Z,101532.00
2022-07-30T15:18:47.561Z,101541.00
2022-07-30T15:21:15.233Z,101541.00
2022-07-30T15:23:43.853Z,101539.00
2022-07-30T15:26:11.847Z,101530.00
2022-07-30T15:28:39.552Z,101540.00
2022-07-30T15:31:07.261Z,101536.00
2022-07-30T15:33:37.344Z,101531.00
2022-07-30T15:36:06.569Z,101535.00
2022-07-30T15:38:34.044Z,101523.00
2022-07-30T15:41:02.213Z,101539.00
2022-07-30T15:43:30.763Z,101532.00
2022-07-30T15:45:58.580Z,101537.00
2022-07-30T15:48:28.065Z,101529.00
2022-07-30T15:51:04.156Z,101531.00
2022-07-30T15:53:33.371Z,101533.00
2022-07-30T15:56:01.248Z,101531.00
2022-07-30T15:58:29.729Z,101541.00
2022-07-30T16:00:57.622Z,101541.00
2022-07-30T16:03:25.400Z,101533.00
2022-07-30T16:05:54.045Z,101537.00
2022-07-30T16:08:22.243Z,101539.00
2022-07-30T16:10:53.180Z,101543.00
2022-07-30T16:13:20.553Z,101529.00
2022-07-30T16:15:47.778Z,101535.00
2022-07-30T16:18:15.757Z,101533.00
2022-07-30T16:20:44.360Z,101526.00
2022-07-30T16:23:15.065Z,101528.00
2022-07-30T16:25:45.933Z,101521.00
2022-07-30T16:28:18.966Z,101513.00
2022-07-30T16:31:06.117Z,101507.00
2022-07-30T16:33:36.217Z,101501.00
2022-07-30T16:36:07.793Z,101507.00
2022-07-30T16:38:35.381Z,101516.00
2022-07-30T16:41:03.306Z,101509.00
2022-07-30T16:43:32.077Z,101508.00
2022-07-30T16:46:01.734Z,101507.00
2022-07-30T16:48:29.427Z,101504.00
2022-07-30T16:50:57.941Z,101503.00
2022-07-30T16:53:26.931Z,101510.00
2022-07-30T16:55:57.063Z,101490.00
2022-07-30T16:58:30.882Z,101499.00
2022-07-30T17:00:59.226Z,101501.00
2022-07-30T17:03:27.858Z,101496.00
2022-07-30T17:05:56.039Z,101498.00
2022-07-30T17:08:24.589Z,101500.00
2022-07-30T17:10:55.875Z,101497.00
2022-07-30T17:13:26.204Z,101502.00
2022-07-30T17:15:54.309Z,101505.00
2022-07-30T17:18:23.389Z,101499.00
2022-07-30T17:20:52.115Z,101489.00
2022-07-30T17:23:20.031Z,101503.00
2022-07-30T17:25:47.747Z,101512.00
2022-07-30T17:28:15.219Z,101511.00
2022-07-30T17:30:42.660Z,101518.00
2022-07-30T17:33:11.176Z,101511.00
2022-07-30T17:35:38.566Z,101510.00
2022-07-30T17:38:07.876Z,101520.00
2022-07-30T17:40:35.702Z,101514.00
2022-07-30T17:43:07.910Z,101528.00
2022-07-30T17:45:37.916Z,101526.00
2022-07-30T17:48:06.947Z,101525.00
2022-07-30T17:50:35.875Z,101523.00
2022-07-30T17:53:06.134Z,101520.00
2022-07-30T17:55:37.036Z,101514.00
2022-07-30T17:58:05.519Z,101526.00
2022-07-30T18:00:35.121Z,101519.00
2022-07-30T18:03:03.777Z,101519.00
2022-07-30T18:05:32.357Z,101516.00
2022-07-30T18:08:02.167Z,101522.00
2022-07-30T18:10:29.932Z,101514.00
2022-07-30T18:12:57.397Z,101528.00
2022-07-30T18:15:25.203Z,101527.00
2022-07-30T18:17:52.626Z,101521.00
2022-07-30T18:20:20.285Z,101538.00
2022-07-30T18:22:51.804Z,101527.00
2022-07-30T18:25:19.642Z,101536.00
2022-07-30T18:27:48.385Z,101532.00
2022-07-30T18:30:16.333Z,101537.00
2022-07-30T18:32:45.645Z,101540.00
2022-07-30T18:35:14.797Z,101544.00
2022-07-30T18:37:44.749Z,101542.00
2022-07-30T18:40:16.945Z,101535.00
2022-07-30T18:42:47.480Z,101541.00
2022-07-30T18:45:14.751Z,101538.00
2022-07-30T18:47:47.545Z,101539.00
2022-07-30T18:50:16.815Z,101541.00
2022-07-30T18:52:47.830Z,101540.00
2022-07-30T18:55:17.475Z,101534.00
2022-07-30T18:57:45.307Z,101541.00
2022-07-30T19:00:34.672Z,101540.00
2022-07-30T19:03:02.340Z,101543.00
2022-07-30T19:05:30.128Z,101534.00
2022-07-30T19:07:59.111Z,101539.00
2022-07-30T19:10:27.566Z,101534.00
2022-07-30T19:12:56.336Z,101528.00
2022-07-30T19:15:24.525Z,101538.00
2022-07-30T19:17:52.392Z,101534.00
2022-07-30T19:20:21.134Z,101543.00
2022-07-30T19:22:48.687Z,101539.00
2022-07-30T19:25:21.275Z,101537.00
2022-07-30T19:27:49.456Z,101537.00
2022-07-30T19:30:17.127Z,101528.00
2022-07-30T19:32:45.369Z,101536.00
2022-07-30T19:35:14.461Z,101524.00
2022-07-30T19:37:42.534Z,101524.00
2022-07-30T19:40:11.924Z,101533.00
2022-07-30T19:42:41.670Z,101533.00
2022-07-30T19:45:13.183Z,101543.00
2022-07-30T19:47:42.536Z,101543.00
2022-07-30T19:50:11.812Z,101545.00
2022-07-30T19:52:51.295Z,101548.00
2022-07-30T19:55:35.807Z,101539.00
2022-07-30T19:58:16.014Z,101545.00
2022-07-30T20:00:49.481Z,101554.00
2022-07-30T20:03:25.935Z,101547.00
2022-07-30T20:05:59.110Z,101551.00
2022-07-30T20:08:29.364Z,101546.00
2022-07-30T20:10:57.911Z,101547.00
2022-07-30T20:13:51.710Z,101544.00
2022-07-30T20:16:23.327Z,101545.00
2022-07-30T20:18:53.174Z,101551.00
2022-07-30T20:21:21.294Z,101557.00
2022-07-30T20:24:16.187Z,101557.00
2022-07-30T20:26:45.276Z,101557.00
2022-07-30T20:29:19.009Z,101548.00
2022-07-30T20:31:49.670Z,101563.00
2022-07-30T20:34:23.433Z,101545.00
2022-07-30T20:36:52.144Z,101557.00
2022-07-30T20:39:21.673Z,101554.00
2022-07-30T20:41:49.766Z,101551.00
2022-07-30T20:44:23.379Z,101562.00
2022-07-30T20:46:52.522Z,101554.00
2022-07-30T20:49:24.174Z,101552.00
2022-07-30T20:52:03.870Z,101562.00
2022-07-30T20:54:31.620Z,101555.00
2022-07-30T20:57:00.790Z,101551.00
2022-07-30T20:59:29.572Z,101545.00
2022-07-30T21:01:57.431Z,101545.00
2022-07-30T21:04:28.176Z,101541.00
2022-07-30T21:06:55.755Z,101538.00
2022-07-30T21:09:24.731Z,101543.00
2022-07-30T21:11:54.910Z,101534.00
2022-07-30T21:14:23.015Z,101542.00
2022-07-30T21:16:56.105Z,101539.00
2022-07-30T21:19:24.222Z,101540.00
2022-07-30T21:21:56.958Z,101533.00
2022-07-30T21:24:26.819Z,101540.00
2022-07-30T21:26:54.374Z,101532.00
2022-07-30T21:29:21.854Z,101541.00
2022-07-30T21:32:01.228Z,101530.00
2022-07-30T21:34:41.991Z,101529.00
2022-07-30T21:37:10.032Z,101535.00
2022-07-30T21:39:39.765Z,101529.00
2022-07-30T21:42:09.957Z,101526.00
2022-07-30T21:44:38.994Z,101521.00
2022-07-30T21:47:10.060Z,101528.00
2022-07-30T21:49:39.802Z,101524.00
2022-07-30T21:52:09.298Z,101518.00
2022-07-30T21:54:48.423Z,101516.00
2022-07-30T21:57:26.529Z,101506.00
2022-07-30T21:59:58.739Z,101513.00
2022-07-30T22:02:27.269Z,101508.00
2022-07-30T22:04:55.498Z,101511.00
2022-07-30T22:07:23.057Z,101519.00
2022-07-30T22:09:51.832Z,101513.00
2022-07-30T22:12:19.523Z,101515.00
2022-07-30T22:14:50.143Z,101515.00
2022-07-30T22:17:23.872Z,101513.00
2022-07-30T22:20:08.744Z,101515.00
2022-07-30T22:22:40.240Z,101521.00
2022-07-30T22:25:09.526Z,101520.00
2022-07-30T22:27:56.052Z,101514.00
2022-07-30T22:30:27.231Z,101506.00
2022-07-30T22:32:56.082Z,101509.00
2022-07-30T22:35:32.429Z,101498.00
2022-07-30T22:38:03.193Z,101509.00
2022-07-30T22:40:30.938Z,101513.00
2022-07-30T22:42:58.345Z,101510.00
2022-07-30T22:45:44.761Z,101505.00
2022-07-30T22:48:14.560Z,101513.00
2022-07-30T22:50:42.242Z,101504.00
2022-07-30T22:53:23.672Z,101503.00
2022-07-30T22:55:59.393Z,101510.00
2022-07-30T22:58:29.711Z,101505.00
2022-07-30T23:00:57.969Z,101507.00
2022-07-30T23:03:25.867Z,101504.00
2022-07-30T23:05:55.249Z,101500.00
2022-07-30T23:08:30.246Z,101504.00
2022-07-30T23:11:00.101Z,101500.00
2022-07-30T23:13:29.026Z,101498.00
2022-07-30T23:15:56.738Z,101501.00
2022-07-30T23:18:24.764Z,101499.00
2022-07-30T23:20:54.133Z,101504.00
2022-07-30T23:23:23.372Z,101495.00
2022-07-30T23:25:51.009Z,101499.00
2022-07-30T23:28:19.956Z,101499.00
2022-07-30T23:30:47.286Z,101498.00
2022-07-30T23:33:17.755Z,101481.00
2022-07-30T23:35:46.955Z,101480.00
2022-07-30T23:38:14.511Z,101480.00
2022-07-30T23:40:42.131Z,101486.00
2022-07-30T23:43:09.544Z,101479.00
2022-07-30T23:45:36.880Z,101481.00
2022-07-30T23:48:04.926Z,101479.00
2022-07-30T23:50:33.801Z,101481.00
2022-07-30T23:53:02.365Z,101467.00
2022-07-30T23:55:31.528Z,101462.00
2022-07-30T23:58:00.631Z,101461.00
